createdAt,value
2023-03-30T00:00:51.586Z,12.20
2023-03-30T00:03:19.328Z,8.95
2023-03-30T00:05:49.966Z,11.60
2023-03-30T00:08:18.226Z,9.43
2023-03-30T00:10:45.783Z,9.48
2023-03-30T00:13:13.082Z,16.35
2023-03-30T00:15:40.175Z,11.30
2023-03-30T00:18:07.344Z,8.23
2023-03-30T00:20:34.656Z,12.57
2023-03-30T00:23:01.334Z,10.93
2023-03-30T00:25:28.019Z,11.85
2023-03-30T00:27:54.630Z,9.68
2023-03-30T00:30:22.004Z,12.65
2023-03-30T00:32:48.621Z,13.52
2023-03-30T00:35:15.518Z,10.15
2023-03-30T00:37:45.816Z,10.38
2023-03-30T00:40:16.617Z,11.38
2023-03-30T00:42:43.235Z,11.35
2023-03-30T00:45:10.173Z,9.68
2023-03-30T00:47:40.851Z,8.00
2023-03-30T00:50:09.632Z,11.95
2023-03-30T00:52:37.293Z,11.98
2023-03-30T00:55:07.748Z,19.63
2023-03-30T00:57:36.515Z,11.23
2023-03-30T01:00:07.799Z,6.93
2023-03-30T01:02:40.585Z,9.98
2023-03-30T01:05:08.640Z,16.17
2023-03-30T01:07:37.410Z,11.48
2023-03-30T01:10:04.740Z,14.90
2023-03-30T01:12:31.608Z,13.30
2023-03-30T01:14:58.237Z,13.30
2023-03-30T01:17:44.439Z,10.93
2023-03-30T01:20:40.490Z,11.50
2023-03-30T01:23:37.608Z,11.38
2023-03-30T01:26:39.579Z,9.35
2023-03-30T01:29:16.445Z,14.32
2023-03-30T01:31:52.981Z,9.05
2023-03-30T01:34:44.061Z,12.15
2023-03-30T01:37:18.137Z,16.00
2023-03-30T01:39:59.847Z,12.70
2023-03-30T01:42:44.197Z,9.43
2023-03-30T01:45:16.795Z,9.55
2023-03-30T01:48:13.467Z,10.65
2023-03-30T01:50:42.490Z,9.10
2023-03-30T01:53:21.332Z,9.52
2023-03-30T01:55:55.644Z,10.60
2023-03-30T01:58:24.072Z,13.45
2023-03-30T02:00:51.125Z,8.70
2023-03-30T02:03:22.065Z,10.93
2023-03-30T02:05:51.715Z,12.95
2023-03-30T02:08:21.774Z,8.13
2023-03-30T02:10:49.058Z,11.55
2023-03-30T02:13:16.632Z,15.05
2023-03-30T02:15:47.891Z,12.48
2023-03-30T02:18:14.705Z,11.00
2023-03-30T02:20:42.592Z,14.60
2023-03-30T02:23:09.545Z,11.90
2023-03-30T02:25:38.349Z,15.05
2023-03-30T02:28:07.196Z,12.45
2023-03-30T02:30:34.692Z,11.68
2023-03-30T02:33:01.939Z,9.77
2023-03-30T02:35:37.368Z,10.85
2023-03-30T02:38:25.891Z,12.05
2023-03-30T02:41:01.822Z,10.23
2023-03-30T02:43:39.079Z,9.25
2023-03-30T02:46:22.250Z,11.35
2023-03-30T02:49:31.523Z,12.55
2023-03-30T02:52:09.590Z,16.35
2023-03-30T02:54:50.021Z,15.82
2023-03-30T02:57:32.811Z,17.92
2023-03-30T03:00:43.773Z,14.52
2023-03-30T03:03:23.912Z,8.68
2023-03-30T03:05:54.118Z,16.55
2023-03-30T03:08:30.162Z,11.02
2023-03-30T03:10:56.830Z,18.73
2023-03-30T03:13:28.131Z,12.65
2023-03-30T03:15:56.789Z,11.27
2023-03-30T03:18:25.177Z,13.38
2023-03-30T03:20:51.977Z,17.52
2023-03-30T03:25:51.383Z,15.27
2023-03-30T03:28:19.933Z,18.08
2023-03-30T03:33:20.674Z,11.23
2023-03-30T03:35:59.853Z,10.05
2023-03-30T03:38:27.802Z,10.63
2023-03-30T03:40:58.157Z,13.95
2023-03-30T03:43:25.834Z,15.02
2023-03-30T03:45:53.121Z,12.77
2023-03-30T03:48:21.577Z,10.23
2023-03-30T03:50:51.771Z,12.52
2023-03-30T03:53:19.053Z,13.80
2023-03-30T03:55:46.716Z,19.27
2023-03-30T03:58:14.263Z,22.27
2023-03-30T04:00:41.045Z,16.48
2023-03-30T04:03:13.456Z,12.68
2023-03-30T04:05:40.776Z,14.23
2023-03-30T04:08:10.700Z,14.30
2023-03-30T04:10:39.597Z,12.07
2023-03-30T04:13:35.982Z,10.30
2023-03-30T04:16:25.374Z,11.63
2023-03-30T04:19:01.324Z,14.48
2023-03-30T04:21:52.907Z,16.02
2023-03-30T04:24:44.543Z,13.27
2023-03-30T04:27:30.004Z,11.27
2023-03-30T04:30:11.988Z,11.50
2023-03-30T04:33:03.928Z,12.40
2023-03-30T04:35:49.540Z,14.18
2023-03-30T04:38:58.441Z,18.48
2023-03-30T04:41:57.472Z,12.73
2023-03-30T04:44:43.013Z,14.90
2023-03-30T04:47:19.124Z,15.98
2023-03-30T04:50:18.201Z,8.75
2023-03-30T04:53:03.512Z,17.35
2023-03-30T04:55:30.086Z,25.35
2023-03-30T04:58:19.980Z,16.45
2023-03-30T05:01:01.599Z,16.92
2023-03-30T05:03:45.154Z,11.40
2023-03-30T05:06:35.522Z,19.10
2023-03-30T05:09:22.025Z,20.27
2023-03-30T05:12:21.067Z,13.90
2023-03-30T05:14:55.269Z,13.27
2023-03-30T05:17:33.920Z,17.02
2023-03-30T05:20:20.090Z,13.32
2023-03-30T05:23:16.301Z,17.70
2023-03-30T05:26:07.262Z,16.85
2023-03-30T05:29:09.947Z,18.67
2023-03-30T05:31:59.833Z,15.82
2023-03-30T05:35:01.694Z,12.00
2023-03-30T05:37:48.753Z,17.83
2023-03-30T05:40:39.696Z,11.32
2023-03-30T05:43:07.416Z,8.75
2023-03-30T05:45:52.232Z,11.52
2023-03-30T05:48:40.866Z,13.27
2023-03-30T05:51:21.780Z,15.32
2023-03-30T05:54:11.713Z,9.15
2023-03-30T05:56:38.502Z,12.10
2023-03-30T05:59:19.270Z,12.38
2023-03-30T06:02:08.471Z,8.95
2023-03-30T06:04:39.019Z,7.72
2023-03-30T06:07:06.457Z,11.13
2023-03-30T06:09:33.632Z,7.90
2023-03-30T06:12:05.308Z,9.85
2023-03-30T06:14:32.730Z,6.43
2023-03-30T06:19:49.724Z,10.75
2023-03-30T06:22:16.664Z,10.10
2023-03-30T06:24:51.582Z,6.45
2023-03-30T06:27:19.708Z,9.43
2023-03-30T06:29:46.361Z,6.18
2023-03-30T06:32:13.086Z,9.77
2023-03-30T06:35:09.311Z,7.60
2023-03-30T06:37:39.057Z,9.43
2023-03-30T06:40:13.464Z,8.82
2023-03-30T06:42:46.908Z,8.45
2023-03-30T06:45:36.496Z,5.65
2023-03-30T06:48:03.895Z,5.32
2023-03-30T06:50:33.458Z,9.15
2023-03-30T06:53:06.476Z,7.15
2023-03-30T06:55:40.961Z,9.07
2023-03-30T06:58:09.727Z,9.23
2023-03-30T07:00:37.310Z,9.00
2023-03-30T07:03:36.065Z,6.90
2023-03-30T07:06:21.025Z,10.20
2023-03-30T07:08:49.037Z,9.82
2023-03-30T07:11:22.381Z,8.10
2023-03-30T07:13:50.525Z,8.15
2023-03-30T07:16:17.198Z,6.15
2023-03-30T07:18:43.843Z,6.53
2023-03-30T07:21:10.721Z,6.03
2023-03-30T07:23:39.513Z,9.45
2023-03-30T07:26:07.725Z,7.07
2023-03-30T07:28:45.506Z,7.03
2023-03-30T07:31:14.135Z,5.30
2023-03-30T07:33:42.708Z,6.68
2023-03-30T07:36:13.567Z,5.25
2023-03-30T07:38:40.401Z,8.85
2023-03-30T07:41:13.396Z,9.95
2023-03-30T07:43:41.493Z,7.45
2023-03-30T07:46:10.335Z,6.18
2023-03-30T07:48:40.183Z,7.93
2023-03-30T07:51:10.049Z,6.45
2023-03-30T07:53:43.785Z,9.68
2023-03-30T07:56:19.642Z,8.70
2023-03-30T07:58:48.227Z,8.70
2023-03-30T08:01:16.665Z,8.55
2023-03-30T08:03:55.513Z,5.68
2023-03-30T08:06:23.273Z,7.53
2023-03-30T08:08:54.817Z,6.53
2023-03-30T08:11:22.037Z,7.25
2023-03-30T08:13:48.727Z,7.05
2023-03-30T08:16:15.564Z,9.77
2023-03-30T08:18:42.280Z,9.27
2023-03-30T08:21:10.784Z,6.47
2023-03-30T08:23:37.403Z,6.75
2023-03-30T08:26:04.150Z,10.32
2023-03-30T08:28:31.205Z,9.57
2023-03-30T08:31:03.797Z,8.50
2023-03-30T08:33:31.517Z,10.68
2023-03-30T08:35:58.312Z,10.05
2023-03-30T08:38:25.728Z,6.63
2023-03-30T08:40:52.397Z,6.22
2023-03-30T08:43:42.746Z,5.25
2023-03-30T08:46:14.759Z,3.78
2023-03-30T08:48:42.856Z,5.85
2023-03-30T08:51:28.479Z,4.65
2023-03-30T08:54:01.418Z,7.15
2023-03-30T08:57:11.676Z,6.70
2023-03-30T08:59:38.369Z,3.67
2023-03-30T09:02:21.273Z,6.05
2023-03-30T09:05:02.315Z,5.70
2023-03-30T09:07:45.240Z,6.75
2023-03-30T09:10:13.754Z,6.85
2023-03-30T09:13:00.954Z,6.20
2023-03-30T09:15:36.764Z,7.28
2023-03-30T09:18:17.197Z,7.10
2023-03-30T09:23:17.630Z,8.82
2023-03-30T09:25:53.431Z,10.00
2023-03-30T09:28:23.070Z,10.27
2023-03-30T09:30:57.375Z,5.70
2023-03-30T09:33:39.940Z,6.90
2023-03-30T09:36:16.779Z,5.78
2023-03-30T09:38:45.200Z,6.32
2023-03-30T09:41:31.800Z,7.45
2023-03-30T09:43:59.549Z,7.75
2023-03-30T09:46:26.147Z,7.65
2023-03-30T09:48:52.792Z,3.53
2023-03-30T09:51:25.511Z,10.15
2023-03-30T09:54:18.512Z,7.60
2023-03-30T09:56:47.656Z,6.50
2023-03-30T09:59:27.509Z,4.90
2023-03-30T10:02:17.935Z,6.32
2023-03-30T10:04:53.935Z,9.60
2023-03-30T10:07:24.924Z,5.75
2023-03-30T10:09:51.743Z,10.95
2023-03-30T10:12:18.717Z,6.50
2023-03-30T10:14:45.582Z,7.95
2023-03-30T10:17:24.680Z,5.05
2023-03-30T10:20:36.317Z,6.85
2023-03-30T10:23:13.743Z,10.25
2023-03-30T10:25:41.688Z,5.43
2023-03-30T10:28:21.513Z,7.85
2023-03-30T10:30:52.860Z,5.70
2023-03-30T10:33:20.305Z,7.75
2023-03-30T10:35:48.884Z,10.85
2023-03-30T10:38:15.822Z,7.05
2023-03-30T10:40:44.609Z,6.95
2023-03-30T10:43:17.531Z,6.80
2023-03-30T10:45:52.033Z,5.90
2023-03-30T10:48:41.011Z,11.43
2023-03-30T10:51:28.496Z,6.15
2023-03-30T10:54:23.007Z,5.50
2023-03-30T10:56:53.670Z,13.00
2023-03-30T10:59:44.698Z,12.50
2023-03-30T11:02:27.446Z,7.88
2023-03-30T11:05:01.027Z,6.13
2023-03-30T11:07:30.747Z,6.75
2023-03-30T11:10:05.876Z,5.95
2023-03-30T11:12:36.606Z,7.72
2023-03-30T11:15:07.620Z,8.00
2023-03-30T11:17:46.022Z,4.55
2023-03-30T11:20:24.241Z,7.20
2023-03-30T11:23:00.869Z,3.63
2023-03-30T11:25:32.680Z,5.28
2023-03-30T11:28:06.514Z,10.70
2023-03-30T11:30:34.165Z,5.68
2023-03-30T11:33:27.614Z,3.67
2023-03-30T11:35:58.623Z,8.98
2023-03-30T11:38:48.019Z,6.43
2023-03-30T11:41:17.701Z,5.47
2023-03-30T11:43:44.441Z,6.65
2023-03-30T11:46:27.890Z,7.57
2023-03-30T11:48:57.418Z,5.72
2023-03-30T11:51:49.595Z,6.47
2023-03-30T11:54:34.534Z,6.53
2023-03-30T11:57:07.926Z,7.63
2023-03-30T11:59:49.974Z,4.20
2023-03-30T12:02:28.090Z,5.45
2023-03-30T12:05:01.313Z,9.20
2023-03-30T12:07:42.556Z,6.00
2023-03-30T12:10:18.704Z,8.02
2023-03-30T12:12:47.165Z,3.50
2023-03-30T12:15:27.000Z,4.03
2023-03-30T12:17:56.825Z,4.47
2023-03-30T12:20:50.358Z,7.57
2023-03-30T12:23:34.261Z,6.00
2023-03-30T12:26:34.219Z,5.82
2023-03-30T12:29:44.437Z,3.92
2023-03-30T12:31:55.704Z,4.53
2023-03-30T12:34:24.338Z,7.45
2023-03-30T12:36:58.068Z,2.78
2023-03-30T12:39:50.460Z,6.15
2023-03-30T12:42:34.731Z,6.97
2023-03-30T12:45:11.112Z,6.82
2023-03-30T12:48:28.716Z,14.13
2023-03-30T12:51:16.559Z,5.20
2023-03-30T12:53:52.368Z,4.28
2023-03-30T12:56:33.262Z,5.07
2023-03-30T12:59:18.370Z,4.70
2023-03-30T13:02:29.975Z,5.45
2023-03-30T13:04:58.159Z,4.32
2023-03-30T13:07:28.172Z,5.38
2023-03-30T13:10:06.253Z,5.10
2023-03-30T13:12:38.238Z,6.07
2023-03-30T13:15:17.338Z,6.93
2023-03-30T13:17:50.833Z,4.82
2023-03-30T13:20:30.058Z,6.13
2023-03-30T13:23:06.854Z,4.78
2023-03-30T13:25:57.722Z,4.78
2023-03-30T13:28:45.560Z,3.15
2023-03-30T13:31:35.643Z,9.18
2023-03-30T13:34:28.521Z,5.55
2023-03-30T13:36:55.187Z,3.80
2023-03-30T13:39:28.829Z,4.65
2023-03-30T13:42:14.000Z,5.00
2023-03-30T13:45:14.054Z,5.97
2023-03-30T13:48:12.108Z,5.75
2023-03-30T13:50:39.564Z,3.38
2023-03-30T13:53:10.665Z,3.60
2023-03-30T13:55:40.985Z,8.02
2023-03-30T14:00:48.616Z,5.90
2023-03-30T14:03:34.764Z,8.73
2023-03-30T14:06:07.705Z,5.32
2023-03-30T14:08:38.058Z,4.78
2023-03-30T14:11:11.363Z,5.57
2023-03-30T14:13:38.470Z,4.97
2023-03-30T14:16:06.788Z,5.97
2023-03-30T14:18:33.660Z,7.10
2023-03-30T14:21:03.477Z,6.80
2023-03-30T14:23:44.120Z,9.23
2023-03-30T14:28:59.476Z,1.98
2023-03-30T14:31:29.518Z,5.18
2023-03-30T14:33:56.592Z,4.47
2023-03-30T14:36:23.344Z,5.50
2023-03-30T14:38:52.271Z,4.43
2023-03-30T14:41:24.112Z,2.05
2023-03-30T14:43:56.940Z,5.88
2023-03-30T14:46:25.592Z,5.03
2023-03-30T14:48:52.524Z,3.83
2023-03-30T14:51:27.833Z,5.93
2023-03-30T14:53:55.839Z,5.55
2023-03-30T14:56:22.940Z,6.60
2023-03-30T14:58:51.344Z,4.53
2023-03-30T15:01:23.571Z,5.78
2023-03-30T15:03:50.794Z,3.95
2023-03-30T15:06:24.520Z,7.20
2023-03-30T15:08:51.544Z,8.73
2023-03-30T15:11:26.460Z,7.78
2023-03-30T15:13:57.575Z,5.00
2023-03-30T15:16:28.686Z,4.13
2023-03-30T15:19:06.024Z,5.70
2023-03-30T15:21:36.917Z,8.85
2023-03-30T15:24:07.187Z,10.75
2023-03-30T15:29:00.726Z,5.43
2023-03-30T15:31:28.612Z,4.25
2023-03-30T15:34:05.586Z,5.72
2023-03-30T15:36:39.600Z,3.58
2023-03-30T15:39:21.838Z,4.97
2023-03-30T15:41:57.882Z,3.67
2023-03-30T15:44:24.699Z,5.50
2023-03-30T15:46:54.962Z,3.63
2023-03-30T15:49:24.407Z,7.60
2023-03-30T15:51:52.558Z,8.93
2023-03-30T15:54:39.704Z,7.03
2023-03-30T15:57:14.459Z,7.15
2023-03-30T15:59:45.886Z,5.60
2023-03-30T16:02:21.695Z,3.80
2023-03-30T16:04:49.614Z,6.70
2023-03-30T16:07:18.684Z,6.47
2023-03-30T16:09:46.136Z,7.22
2023-03-30T16:12:18.793Z,5.75
2023-03-30T16:14:47.042Z,9.43
2023-03-30T16:17:14.370Z,6.50
2023-03-30T16:19:41.262Z,8.63
2023-03-30T16:22:09.053Z,11.60
2023-03-30T16:24:36.242Z,6.47
2023-03-30T16:27:03.880Z,5.03
2023-03-30T16:29:31.368Z,3.67
2023-03-30T16:31:58.165Z,3.45
2023-03-30T16:34:25.357Z,6.28
2023-03-30T16:36:53.032Z,5.82
2023-03-30T16:39:25.172Z,5.20
2023-03-30T16:41:52.282Z,5.85
2023-03-30T16:44:21.042Z,7.20
2023-03-30T16:46:48.415Z,6.72
2023-03-30T16:49:21.519Z,7.68
2023-03-30T16:51:49.263Z,4.90
2023-03-30T16:54:29.509Z,9.68
2023-03-30T16:56:58.641Z,5.65
2023-03-30T16:59:28.901Z,9.20
2023-03-30T17:01:55.858Z,11.40
2023-03-30T17:04:22.636Z,5.85
2023-03-30T17:06:49.346Z,6.88
2023-03-30T17:09:17.748Z,8.48
2023-03-30T17:11:46.376Z,9.90
2023-03-30T17:14:13.250Z,7.10
2023-03-30T17:16:40.300Z,7.93
2023-03-30T17:19:10.725Z,9.95
2023-03-30T17:24:03.992Z,7.70
2023-03-30T17:26:30.778Z,6.38
2023-03-30T17:28:57.432Z,5.32
2023-03-30T17:31:24.089Z,7.63
2023-03-30T17:33:50.829Z,11.57
2023-03-30T17:36:18.531Z,6.78
2023-03-30T17:38:45.709Z,6.68
2023-03-30T17:41:13.577Z,8.90
2023-03-30T17:43:40.876Z,9.57
2023-03-30T17:46:07.843Z,9.15
2023-03-30T17:48:34.901Z,7.28
2023-03-30T17:51:01.949Z,4.07
2023-03-30T17:53:28.513Z,6.18
2023-03-30T17:55:55.376Z,4.70
2023-03-30T17:58:33.945Z,9.05
2023-03-30T18:01:02.762Z,11.60
2023-03-30T18:03:30.020Z,6.97
2023-03-30T18:05:57.944Z,7.38
2023-03-30T18:08:25.613Z,4.10
2023-03-30T18:10:55.944Z,7.00
2023-03-30T18:15:51.766Z,8.57
2023-03-30T18:18:23.270Z,6.90
2023-03-30T18:20:53.597Z,8.85
2023-03-30T18:25:47.372Z,8.45
2023-03-30T18:28:25.904Z,9.70
2023-03-30T18:30:55.165Z,7.85
2023-03-30T18:33:22.013Z,4.82
2023-03-30T18:35:50.974Z,3.97
2023-03-30T18:38:20.604Z,5.65
2023-03-30T18:40:53.499Z,5.97
2023-03-30T18:43:20.293Z,4.68
2023-03-30T18:45:48.570Z,4.43
2023-03-30T18:48:18.687Z,8.18
2023-03-30T18:50:47.603Z,7.30
2023-03-30T18:53:17.014Z,10.90
2023-03-30T18:55:45.431Z,8.43
2023-03-30T18:58:20.534Z,11.02
2023-03-30T19:00:48.679Z,9.43
2023-03-30T19:03:15.942Z,10.25
2023-03-30T19:05:42.764Z,8.38
2023-03-30T19:08:18.232Z,6.15
2023-03-30T19:10:46.232Z,10.30
2023-03-30T19:13:14.371Z,7.40
2023-03-30T19:15:41.631Z,12.38
2023-03-30T19:18:08.495Z,7.30
2023-03-30T19:20:41.331Z,7.90
2023-03-30T19:23:10.589Z,8.20
2023-03-30T19:25:37.225Z,9.63
2023-03-30T19:28:04.995Z,10.60
2023-03-30T19:30:35.335Z,8.32
2023-03-30T19:33:06.174Z,9.48
2023-03-30T19:35:33.622Z,15.07
2023-03-30T19:38:00.538Z,12.70
2023-03-30T19:40:27.345Z,11.77
2023-03-30T19:42:53.923Z,7.30
2023-03-30T19:45:23.656Z,7.72
2023-03-30T19:47:53.052Z,8.50
2023-03-30T19:50:23.079Z,7.82
2023-03-30T19:52:50.918Z,12.23
2023-03-30T19:55:19.430Z,6.00
2023-03-30T19:57:46.233Z,9.32
2023-03-30T20:00:15.720Z,7.60
2023-03-30T20:02:44.736Z,8.68
2023-03-30T20:05:12.846Z,8.38
2023-03-30T20:07:40.575Z,7.32
2023-03-30T20:10:09.879Z,6.72
2023-03-30T20:12:37.011Z,7.35
2023-03-30T20:15:06.026Z,7.20
2023-03-30T20:17:33.952Z,9.82
2023-03-30T20:20:06.546Z,10.27
2023-03-30T20:22:37.037Z,8.82
2023-03-30T20:25:06.436Z,5.65
2023-03-30T20:27:33.764Z,12.43
2023-03-30T20:30:00.794Z,7.05
2023-03-30T20:32:27.495Z,8.77
2023-03-30T20:34:54.189Z,10.85
2023-03-30T20:37:20.735Z,8.82
2023-03-30T20:39:49.832Z,9.70
2023-03-30T20:42:17.873Z,8.85
2023-03-30T20:44:50.261Z,12.45
2023-03-30T20:47:17.623Z,9.88
2023-03-30T20:49:44.883Z,8.20
2023-03-30T20:52:12.490Z,10.20
2023-03-30T20:54:40.871Z,8.65
2023-03-30T20:57:07.504Z,12.75
2023-03-30T20:59:34.183Z,7.20
2023-03-30T21:02:00.837Z,8.55
2023-03-30T21:04:27.689Z,8.00
2023-03-30T21:06:54.564Z,10.18
2023-03-30T21:09:21.269Z,12.75
2023-03-30T21:11:47.867Z,9.10
2023-03-30T21:14:14.539Z,9.57
2023-03-30T21:16:44.674Z,8.88
2023-03-30T21:19:11.405Z,7.93
2023-03-30T21:21:38.468Z,9.82
2023-03-30T21:24:06.507Z,6.72
2023-03-30T21:26:33.120Z,11.32
2023-03-30T21:28:59.762Z,7.85
2023-03-30T21:31:26.644Z,9.10
2023-03-30T21:33:53.360Z,10.43
2023-03-30T21:36:20.219Z,10.18
2023-03-30T21:38:46.962Z,10.70
2023-03-30T21:41:18.131Z,14.35
2023-03-30T21:43:47.117Z,11.27
2023-03-30T21:46:18.691Z,9.57
2023-03-30T21:48:46.239Z,8.38
2023-03-30T21:51:22.664Z,11.07
2023-03-30T21:53:51.071Z,9.95
2023-03-30T21:56:18.926Z,11.38
2023-03-30T21:58:45.837Z,9.75
2023-03-30T22:01:13.066Z,13.85
2023-03-30T22:03:41.637Z,12.13
2023-03-30T22:06:10.525Z,10.50
2023-03-30T22:08:37.212Z,13.95
2023-03-30T22:11:07.138Z,9.27
2023-03-30T22:13:34.209Z,15.57
2023-03-30T22:16:06.722Z,9.20
2023-03-30T22:18:34.248Z,10.45
2023-03-30T22:21:02.854Z,13.57
2023-03-30T22:23:30.303Z,10.85
2023-03-30T22:25:57.337Z,10.10
2023-03-30T22:28:24.277Z,12.05
2023-03-30T22:30:51.279Z,10.50
2023-03-30T22:33:18.262Z,9.88
2023-03-30T22:35:46.620Z,9.52
2023-03-30T22:38:14.004Z,12.38
2023-03-30T22:40:41.886Z,13.48
2023-03-30T22:43:09.773Z,8.73
2023-03-30T22:45:36.560Z,11.98
2023-03-30T22:48:03.898Z,13.40
2023-03-30T22:50:30.634Z,14.85
2023-03-30T22:52:57.417Z,11.48
2023-03-30T22:55:24.229Z,12.45
2023-03-30T22:57:54.503Z,11.85
2023-03-30T23:00:21.952Z,13.60
2023-03-30T23:02:49.672Z,16.42
2023-03-30T23:05:17.159Z,14.55
2023-03-30T23:07:44.192Z,12.88
2023-03-30T23:10:14.511Z,13.82
2023-03-30T23:12:42.067Z,11.77
2023-03-30T23:15:10.738Z,10.60
2023-03-30T23:17:37.803Z,13.52
2023-03-30T23:20:06.543Z,10.32
2023-03-30T23:22:34.335Z,9.45
2023-03-30T23:25:00.982Z,8.23
2023-03-30T23:27:27.576Z,15.23
2023-03-30T23:29:54.267Z,13.48
2023-03-30T23:32:21.096Z,13.77
2023-03-30T23:34:47.774Z,13.93
2023-03-30T23:37:15.570Z,12.05
2023-03-30T23:39:42.198Z,10.80
2023-03-30T23:42:08.761Z,10.52
2023-03-30T23:44:35.342Z,9.45
2023-03-30T23:47:02.318Z,12.57
2023-03-30T23:49:29.024Z,10.77
2023-03-30T23:51:56.188Z,17.48
2023-03-30T23:54:23.225Z,14.68
2023-03-30T23:56:56.974Z,14.13
2023-03-30T23:59:24.774Z,14.20
